createdAt,value
2018-03-28T00:02:09.883Z,21.27
2018-03-28T00:04:37.584Z,21.33
2018-03-28T00:07:05.129Z,19.23
2018-03-28T00:09:32.613Z,22.27
2018-03-28T00:12:00.103Z,21.73
2018-03-28T00:14:27.601Z,20.53
2018-03-28T00:16:55.261Z,21.40
2018-03-28T00:19:23.061Z,22.27
2018-03-28T00:21:50.605Z,24.80
2018-03-28T00:24:18.371Z,24.13
2018-03-28T00:26:46.023Z,24.90
2018-03-28T00:29:13.516Z,23.53
2018-03-28T00:31:41.059Z,24.80
2018-03-28T00:34:08.987Z,27.23
2018-03-28T00:36:36.690Z,22.70
2018-03-28T00:39:04.224Z,24.50
2018-03-28T00:41:31.794Z,19.67
2018-03-28T00:43:59.300Z,26.63
2018-03-28T00:46:27.055Z,24.80
2018-03-28T00:48:54.545Z,22.73
2018-03-28T00:51:28.962Z,25.07
2018-03-28T00:53:56.402Z,26.83
2018-03-28T00:56:23.904Z,28.00
2018-03-28T00:58:51.410Z,28.23
2018-03-28T01:01:18.921Z,27.47
2018-03-28T01:03:46.512Z,25.53
2018-03-28T01:06:14.236Z,29.73
2018-03-28T01:08:41.886Z,30.30
2018-03-28T01:11:09.537Z,27.83
2018-03-28T01:13:37.040Z,26.23
2018-03-28T01:16:04.557Z,28.33
2018-03-28T01:18:32.062Z,25.27
2018-03-28T01:20:59.581Z,28.17
2018-03-28T01:23:27.214Z,28.30
2018-03-28T01:25:54.708Z,29.43
2018-03-28T01:28:22.272Z,27.47
2018-03-28T01:30:49.931Z,28.93
2018-03-28T01:33:17.591Z,26.20
2018-03-28T01:35:45.663Z,27.97
2018-03-28T01:38:13.328Z,30.40
2018-03-28T01:40:40.828Z,28.43
2018-03-28T01:43:08.332Z,31.80
2018-03-28T01:45:36.046Z,22.77
2018-03-28T01:48:03.751Z,25.60
2018-03-28T01:50:31.245Z,29.10
2018-03-28T01:52:59.403Z,28.23
2018-03-28T01:55:26.894Z,28.67
2018-03-28T01:57:55.104Z,26.83
2018-03-28T02:00:22.755Z,26.77
2018-03-28T02:02:50.480Z,28.47
2018-03-28T02:05:18.309Z,26.23
2018-03-28T02:07:46.159Z,29.57
2018-03-28T02:10:13.653Z,30.23
2018-03-28T02:12:41.130Z,28.70
2018-03-28T02:15:08.638Z,33.73
2018-03-28T02:17:36.168Z,29.17
2018-03-28T02:20:03.834Z,32.97
2018-03-28T02:22:31.637Z,30.63
2018-03-28T02:24:59.127Z,31.47
2018-03-28T02:27:26.792Z,27.13
2018-03-28T02:29:54.445Z,29.03
2018-03-28T02:32:21.929Z,29.60
2018-03-28T02:34:49.422Z,29.53
2018-03-28T02:37:17.216Z,29.57
2018-03-28T02:39:45.016Z,29.00
2018-03-28T02:42:12.866Z,30.33
2018-03-28T02:44:40.520Z,27.90
2018-03-28T02:47:08.221Z,24.77
2018-03-28T02:49:35.756Z,29.40
2018-03-28T02:52:03.674Z,27.70
2018-03-28T02:54:31.436Z,27.87
2018-03-28T02:56:59.029Z,21.43
2018-03-28T02:59:26.682Z,25.20
2018-03-28T03:01:54.170Z,24.17
2018-03-28T03:04:21.658Z,28.37
2018-03-28T03:06:49.152Z,23.80
2018-03-28T03:09:16.685Z,25.73
2018-03-28T03:11:44.221Z,24.33
2018-03-28T03:14:11.973Z,28.07
2018-03-28T03:16:39.485Z,23.63
2018-03-28T03:19:07.272Z,25.27
2018-03-28T03:21:34.776Z,24.23
2018-03-28T03:24:02.482Z,26.77
2018-03-28T03:26:30.236Z,28.67
2018-03-28T03:28:57.937Z,22.67
2018-03-28T03:31:25.421Z,24.80
2018-03-28T03:33:52.909Z,25.33
2018-03-28T03:36:20.500Z,24.70
2018-03-28T03:38:47.987Z,26.00
2018-03-28T03:41:15.565Z,22.47
2018-03-28T03:43:43.663Z,21.60
2018-03-28T03:46:11.173Z,23.13
2018-03-28T03:48:38.773Z,20.53
2018-03-28T03:51:06.426Z,18.63
2018-03-28T03:53:34.031Z,24.97
2018-03-28T03:56:01.880Z,21.83
2018-03-28T03:58:29.580Z,24.27
2018-03-28T04:00:57.234Z,24.97
2018-03-28T04:03:24.726Z,20.97
2018-03-28T04:05:52.302Z,22.43
2018-03-28T04:08:19.800Z,22.63
2018-03-28T04:10:47.290Z,19.80
2018-03-28T04:13:14.778Z,22.07
2018-03-28T04:15:42.550Z,24.07
2018-03-28T04:18:10.171Z,19.67
2018-03-28T04:20:37.663Z,24.67
2018-03-28T04:23:05.412Z,21.93
2018-03-28T04:25:32.903Z,21.10
2018-03-28T04:28:00.392Z,26.10
2018-03-28T04:30:28.093Z,24.73
2018-03-28T04:32:55.585Z,23.40
2018-03-28T04:35:23.210Z,24.70
2018-03-28T04:37:50.856Z,24.17
2018-03-28T04:40:18.347Z,21.97
2018-03-28T04:42:45.851Z,23.97
2018-03-28T04:45:13.344Z,26.47
2018-03-28T04:47:41.621Z,30.10
2018-03-28T04:50:09.668Z,24.20
2018-03-28T04:52:37.160Z,25.70
2018-03-28T04:55:04.650Z,27.40
2018-03-28T04:57:32.237Z,24.23
2018-03-28T04:59:59.718Z,25.83
2018-03-28T05:02:27.216Z,23.40
2018-03-28T05:04:54.857Z,27.70
2018-03-28T05:07:22.459Z,25.90
2018-03-28T05:09:49.947Z,30.47
2018-03-28T05:12:17.563Z,27.33
2018-03-28T05:14:45.063Z,24.00
2018-03-28T05:17:12.577Z,27.40
2018-03-28T05:19:40.479Z,24.43
2018-03-28T05:22:08.227Z,26.20
2018-03-28T05:24:35.882Z,22.30
2018-03-28T05:27:03.683Z,26.53
2018-03-28T05:29:31.176Z,25.30
2018-03-28T05:31:58.840Z,29.57
2018-03-28T05:34:26.494Z,26.20
2018-03-28T05:36:53.988Z,30.73
2018-03-28T05:39:21.501Z,30.93
2018-03-28T05:41:49.408Z,27.70
2018-03-28T05:44:17.059Z,27.97
2018-03-28T05:46:44.909Z,27.67
2018-03-28T05:49:12.434Z,36.00
2018-03-28T05:51:40.282Z,29.03
2018-03-28T05:54:08.118Z,27.50
2018-03-28T05:56:35.626Z,29.17
2018-03-28T05:59:03.236Z,27.73
2018-03-28T06:01:30.882Z,26.60
2018-03-28T06:03:58.682Z,24.63
2018-03-28T06:06:26.428Z,25.37
2018-03-28T06:08:53.970Z,22.87
2018-03-28T06:11:21.489Z,23.47
2018-03-28T06:13:49.297Z,28.83
2018-03-28T06:16:16.998Z,24.97
2018-03-28T06:18:44.489Z,26.90
2018-03-28T06:21:12.110Z,30.03
2018-03-28T06:23:39.660Z,27.00
2018-03-28T06:26:07.412Z,27.13
2018-03-28T06:28:34.912Z,28.97
2018-03-28T06:31:02.528Z,31.40
2018-03-28T06:33:30.179Z,27.07
2018-03-28T06:35:57.982Z,27.97
2018-03-28T06:38:25.485Z,29.40
2018-03-28T06:40:52.985Z,28.07
2018-03-28T06:43:20.472Z,26.17
2018-03-28T06:45:47.953Z,24.23
2018-03-28T06:48:15.855Z,27.73
2018-03-28T06:50:43.369Z,29.30
2018-03-28T06:53:11.162Z,29.40
2018-03-28T06:55:39.406Z,33.23
2018-03-28T06:58:06.896Z,30.07
2018-03-28T07:00:34.453Z,29.83
2018-03-28T07:03:02.378Z,26.70
2018-03-28T07:05:29.877Z,27.63
2018-03-28T07:07:57.527Z,27.07
2018-03-28T07:10:25.033Z,27.10
2018-03-28T07:12:52.782Z,26.87
2018-03-28T07:15:20.483Z,24.30
2018-03-28T07:17:48.288Z,21.57
2018-03-28T07:20:15.784Z,21.47
2018-03-28T07:22:43.277Z,24.23
2018-03-28T07:25:11.052Z,23.10
2018-03-28T07:27:39.132Z,25.20
2018-03-28T07:30:06.751Z,20.00
2018-03-28T07:32:34.253Z,21.70
2018-03-28T07:35:01.863Z,18.23
2018-03-28T07:37:29.711Z,19.03
2018-03-28T07:39:57.413Z,18.30
2018-03-28T07:42:24.904Z,19.87
2018-03-28T07:44:52.415Z,16.77
2018-03-28T07:47:20.130Z,21.13
2018-03-28T07:49:47.829Z,21.20
2018-03-28T07:52:15.323Z,18.73
2018-03-28T07:54:42.834Z,19.53
2018-03-28T07:57:10.742Z,21.00
2018-03-28T07:59:38.281Z,18.13
2018-03-28T08:02:06.113Z,15.47
2018-03-28T08:04:33.602Z,18.53
2018-03-28T08:07:01.150Z,16.53
2018-03-28T08:09:28.684Z,20.27
2018-03-28T08:11:56.182Z,16.87
2018-03-28T08:14:23.707Z,16.33
2018-03-28T08:16:51.245Z,15.50
2018-03-28T08:19:18.730Z,15.83
2018-03-28T08:21:46.209Z,16.77
2018-03-28T08:24:13.707Z,14.67
2018-03-28T08:26:41.224Z,13.80
2018-03-28T08:29:08.718Z,15.67
2018-03-28T08:31:36.380Z,17.60
2018-03-28T08:34:03.882Z,24.23
2018-03-28T08:36:31.396Z,19.97
2018-03-28T08:38:58.904Z,16.37
2018-03-28T08:41:26.409Z,17.13
2018-03-28T08:43:53.955Z,17.07
2018-03-28T08:46:21.459Z,17.17
2018-03-28T08:48:48.958Z,14.20
2018-03-28T08:51:16.449Z,12.60
2018-03-28T08:53:43.930Z,14.63
2018-03-28T08:56:11.436Z,17.93
2018-03-28T08:58:38.943Z,18.37
2018-03-28T09:01:06.466Z,17.13
2018-03-28T09:03:34.098Z,13.33
2018-03-28T09:06:01.611Z,14.70
2018-03-28T09:08:29.088Z,13.00
2018-03-28T09:10:56.617Z,12.70
2018-03-28T09:13:24.109Z,12.17
2018-03-28T09:15:51.597Z,13.23
2018-03-28T09:18:19.086Z,14.23
2018-03-28T09:20:46.577Z,16.17
2018-03-28T09:23:14.072Z,16.13
2018-03-28T09:25:41.582Z,14.57
2018-03-28T09:28:09.072Z,12.40
2018-03-28T09:30:36.562Z,13.07
2018-03-28T09:33:04.315Z,14.07
2018-03-28T09:35:32.011Z,14.50
2018-03-28T09:37:59.523Z,11.20
2018-03-28T09:40:27.321Z,12.70
2018-03-28T09:42:54.808Z,11.40
2018-03-28T09:45:22.302Z,10.43
2018-03-28T09:47:50.083Z,12.97
2018-03-28T09:50:17.739Z,13.03
2018-03-28T09:52:45.233Z,11.50
2018-03-28T09:55:13.003Z,13.07
2018-03-28T09:57:40.653Z,11.50
2018-03-28T10:00:08.216Z,15.63
2018-03-28T10:02:41.708Z,10.73
2018-03-28T10:05:11.720Z,11.67
2018-03-28T10:07:39.746Z,9.97
2018-03-28T10:10:07.282Z,13.40
2018-03-28T10:12:34.822Z,10.93
2018-03-28T10:15:02.683Z,8.53
2018-03-28T10:17:30.353Z,11.43
2018-03-28T10:19:57.862Z,8.63
2018-03-28T10:22:25.490Z,9.60
2018-03-28T10:24:53.147Z,7.30
2018-03-28T10:27:20.799Z,7.83
2018-03-28T10:29:48.302Z,8.27
2018-03-28T10:32:16.117Z,5.93
2018-03-28T10:34:44.105Z,6.33
2018-03-28T10:37:11.596Z,4.07
2018-03-28T10:39:39.206Z,5.67
2018-03-28T10:42:06.681Z,5.47
2018-03-28T10:44:34.367Z,5.37
2018-03-28T10:47:01.980Z,6.77
2018-03-28T10:49:29.521Z,6.30
2018-03-28T10:51:57.287Z,5.13
2018-03-28T10:54:24.846Z,5.57
2018-03-28T10:56:52.362Z,7.50
2018-03-28T10:59:20.098Z,7.00
2018-03-28T11:01:47.572Z,4.93
2018-03-28T11:04:15.210Z,14.60
2018-03-28T11:06:42.769Z,7.60
2018-03-28T11:09:10.286Z,6.43
2018-03-28T11:11:38.349Z,6.87
2018-03-28T11:14:05.856Z,7.37
2018-03-28T11:16:33.474Z,7.20
2018-03-28T11:19:00.994Z,4.83
2018-03-28T11:21:28.493Z,4.17
2018-03-28T11:23:56.389Z,5.40
2018-03-28T11:26:23.874Z,7.40
2018-03-28T11:28:51.893Z,6.47
2018-03-28T11:31:19.607Z,2.70
2018-03-28T11:33:47.219Z,7.30
2018-03-28T11:36:14.713Z,2.80
2018-03-28T11:38:42.209Z,3.97
2018-03-28T11:41:09.699Z,3.20
2018-03-28T11:43:37.233Z,4.93
2018-03-28T11:46:04.717Z,4.80
2018-03-28T11:48:32.196Z,3.37
2018-03-28T11:50:59.677Z,8.33
2018-03-28T11:53:27.168Z,6.90
2018-03-28T11:55:54.662Z,6.77
2018-03-28T11:58:22.165Z,4.63
2018-03-28T12:00:49.649Z,5.13
2018-03-28T12:03:17.126Z,3.30
2018-03-28T12:05:44.609Z,6.53
2018-03-28T12:08:12.585Z,6.20
2018-03-28T12:10:40.089Z,10.00
2018-03-28T12:13:07.606Z,5.10
2018-03-28T12:15:35.566Z,5.27
2018-03-28T12:18:03.070Z,6.77
2018-03-28T12:20:30.551Z,5.70
2018-03-28T12:22:58.028Z,3.80
2018-03-28T12:25:25.530Z,9.50
2018-03-28T12:27:53.005Z,4.93
2018-03-28T12:30:20.496Z,5.77
2018-03-28T12:32:48.137Z,4.53
2018-03-28T12:35:15.633Z,5.50
2018-03-28T12:37:43.133Z,5.47
2018-03-28T12:40:10.696Z,4.00
2018-03-28T12:42:38.396Z,5.17
2018-03-28T12:45:05.874Z,6.47
2018-03-28T12:47:33.409Z,5.23
2018-03-28T12:50:00.918Z,7.23
2018-03-28T12:52:28.501Z,4.93
2018-03-28T12:54:56.008Z,5.83
2018-03-28T12:57:23.536Z,6.47
2018-03-28T12:59:51.237Z,5.70
2018-03-28T13:02:18.848Z,6.63
2018-03-28T13:04:46.643Z,5.23
2018-03-28T13:07:14.120Z,4.80
2018-03-28T13:09:41.952Z,6.97
2018-03-28T13:12:09.433Z,4.33
2018-03-28T13:14:37.060Z,4.67
2018-03-28T13:17:04.758Z,4.50
2018-03-28T13:19:32.325Z,4.70
2018-03-28T13:21:59.801Z,5.37
2018-03-28T13:24:27.280Z,5.00
2018-03-28T13:26:54.777Z,4.30
2018-03-28T13:29:22.262Z,5.03
2018-03-28T13:31:49.747Z,7.00
2018-03-28T13:34:17.229Z,4.77
2018-03-28T13:36:44.750Z,5.73
2018-03-28T13:39:12.234Z,4.30
2018-03-28T13:41:39.736Z,6.67
2018-03-28T13:44:07.257Z,4.57
2018-03-28T13:46:34.746Z,5.60
2018-03-28T13:49:02.242Z,3.80
2018-03-28T13:51:29.776Z,4.80
2018-03-28T13:53:57.245Z,4.90
2018-03-28T13:56:24.725Z,4.83
2018-03-28T13:58:52.241Z,4.60
2018-03-28T14:01:19.730Z,5.67
2018-03-28T14:03:47.240Z,4.00
2018-03-28T14:06:14.726Z,5.97
2018-03-28T14:08:42.225Z,7.80
2018-03-28T14:11:09.822Z,6.33
2018-03-28T14:13:37.598Z,5.60
2018-03-28T14:16:05.077Z,5.03
2018-03-28T14:18:32.612Z,6.43
2018-03-28T14:21:00.319Z,5.77
2018-03-28T14:23:28.245Z,5.37
2018-03-28T14:25:55.913Z,7.60
2018-03-28T14:28:23.434Z,4.07
2018-03-28T14:30:50.908Z,7.33
2018-03-28T14:33:18.690Z,6.50
2018-03-28T14:35:46.345Z,4.43
2018-03-28T14:38:14.135Z,3.40
2018-03-28T14:40:41.789Z,3.33
2018-03-28T14:43:09.440Z,5.77
2018-03-28T14:45:37.291Z,2.30
2018-03-28T14:48:04.844Z,2.30
2018-03-28T14:50:32.405Z,6.23
2018-03-28T14:52:59.894Z,2.83
2018-03-28T14:55:27.905Z,3.87
2018-03-28T14:57:55.601Z,3.37
2018-03-28T15:00:23.257Z,3.73
2018-03-28T15:02:50.771Z,3.83
2018-03-28T15:05:19.195Z,3.03
2018-03-28T15:07:46.704Z,3.57
2018-03-28T15:10:14.185Z,4.90
2018-03-28T15:12:41.857Z,6.57
2018-03-28T15:15:09.571Z,3.43
2018-03-28T15:17:37.381Z,6.77
2018-03-28T15:20:05.223Z,3.43
2018-03-28T15:22:32.785Z,1.83
2018-03-28T15:25:00.275Z,5.43
2018-03-28T15:27:28.581Z,2.27
2018-03-28T15:29:56.626Z,2.60
2018-03-28T15:32:24.211Z,3.03
2018-03-28T15:34:51.748Z,3.87
2018-03-28T15:37:19.295Z,3.63
2018-03-28T15:39:46.819Z,3.33
2018-03-28T15:42:14.415Z,2.43
2018-03-28T15:44:42.061Z,2.33
2018-03-28T15:47:09.687Z,2.23
2018-03-28T15:49:37.350Z,2.70
2018-03-28T15:52:04.984Z,1.70
2018-03-28T15:54:33.358Z,1.50
2018-03-28T15:57:01.366Z,2.07
2018-03-28T15:59:29.217Z,2.10
2018-03-28T16:01:57.038Z,1.70
2018-03-28T16:04:24.864Z,3.27
2018-03-28T16:06:52.765Z,2.87
2018-03-28T16:09:20.614Z,2.70
2018-03-28T16:11:48.649Z,2.33
2018-03-28T16:14:16.594Z,4.93
2018-03-28T16:16:44.415Z,2.13
2018-03-28T16:19:12.285Z,1.63
2018-03-28T16:21:40.133Z,1.63
2018-03-28T16:24:08.203Z,4.57
2018-03-28T16:26:36.045Z,3.80
2018-03-28T16:29:03.880Z,2.83
2018-03-28T16:31:31.801Z,1.90
2018-03-28T16:33:59.633Z,2.93
2018-03-28T16:36:27.441Z,2.47
2018-03-28T16:38:56.433Z,2.77
2018-03-28T16:41:25.072Z,6.03
2018-03-28T16:43:52.943Z,7.97
2018-03-28T16:46:20.775Z,3.27
2018-03-28T16:48:48.613Z,2.20
2018-03-28T16:51:16.482Z,3.93
2018-03-28T16:53:45.299Z,2.33
2018-03-28T16:56:13.155Z,1.13
2018-03-28T16:58:40.997Z,1.43
2018-03-28T17:01:08.938Z,2.30
2018-03-28T17:03:36.811Z,1.43
2018-03-28T17:06:04.639Z,2.77
2018-03-28T17:08:32.468Z,1.60
2018-03-28T17:11:00.310Z,2.83
2018-03-28T17:13:28.153Z,1.30
2018-03-28T17:15:56.477Z,1.67
2018-03-28T17:18:25.376Z,4.20
2018-03-28T17:20:54.208Z,2.37
2018-03-28T17:23:23.047Z,3.63
2018-03-28T17:25:50.877Z,2.00
2018-03-28T17:28:18.697Z,2.17
2018-03-28T17:30:46.522Z,1.90
2018-03-28T17:33:14.364Z,5.57
2018-03-28T17:35:42.824Z,3.30
2018-03-28T17:38:10.665Z,2.77
2018-03-28T17:40:39.228Z,2.83
2018-03-28T17:43:07.044Z,2.47
2018-03-28T17:45:34.863Z,2.70
2018-03-28T17:48:02.713Z,3.43
2018-03-28T17:50:31.658Z,2.37
2018-03-28T17:53:00.428Z,3.10
2018-03-28T17:55:29.414Z,3.70
2018-03-28T17:57:57.230Z,2.57
2018-03-28T18:00:25.091Z,3.03
2018-03-28T18:02:53.950Z,2.60
2018-03-28T18:05:21.836Z,4.10
2018-03-28T18:07:49.766Z,3.00
2018-03-28T18:10:17.612Z,3.43
2018-03-28T18:12:45.451Z,2.53
2018-03-28T18:15:13.273Z,4.37
2018-03-28T18:17:41.217Z,3.40
2018-03-28T18:20:09.166Z,3.43
2018-03-28T18:22:37.193Z,3.90
2018-03-28T18:25:05.095Z,4.07
2018-03-28T18:27:32.941Z,1.50
2018-03-28T18:30:00.792Z,1.13
2018-03-28T18:32:28.650Z,1.00
2018-03-28T18:34:56.494Z,1.50
2018-03-28T18:37:24.312Z,0.80
2018-03-28T18:39:52.285Z,0.90
2018-03-28T18:42:20.122Z,2.07
2018-03-28T18:44:47.958Z,1.43
2018-03-28T18:47:15.788Z,1.77
2018-03-28T18:49:43.640Z,2.00
2018-03-28T18:52:11.541Z,2.17
2018-03-28T18:54:39.361Z,1.93
2018-03-28T18:57:07.439Z,5.30
2018-03-28T18:59:35.386Z,3.00
2018-03-28T19:02:03.284Z,1.80
2018-03-28T19:04:31.201Z,1.70
2018-03-28T19:06:59.055Z,1.87
2018-03-28T19:09:26.960Z,1.53
2018-03-28T19:11:55.074Z,3.40
2018-03-28T19:14:22.981Z,8.77
2018-03-28T19:16:50.860Z,1.10
2018-03-28T19:19:18.778Z,1.80
2018-03-28T19:21:46.694Z,1.50
2018-03-28T19:24:15.439Z,1.30
2018-03-28T19:26:43.410Z,1.13
2018-03-28T19:29:11.241Z,2.40
2018-03-28T19:31:39.241Z,3.63
2018-03-28T19:34:07.669Z,2.70
2018-03-28T19:36:35.546Z,2.00
2018-03-28T19:39:03.509Z,1.87
2018-03-28T19:41:31.392Z,2.10
2018-03-28T19:43:59.484Z,3.40
2018-03-28T19:46:28.473Z,1.30
2018-03-28T19:48:56.297Z,1.43
2018-03-28T19:51:24.147Z,2.07
2018-03-28T19:53:52.021Z,1.57
2018-03-28T19:56:19.877Z,3.10
2018-03-28T19:58:47.720Z,3.43
2018-03-28T20:01:15.549Z,1.23
2018-03-28T20:03:43.381Z,1.27
2018-03-28T20:06:11.298Z,1.43
2018-03-28T20:08:39.200Z,1.10
2018-03-28T20:11:07.078Z,1.23
2018-03-28T20:13:35.042Z,1.50
2018-03-28T20:16:03.961Z,0.87
2018-03-28T20:18:32.781Z,1.40
2018-03-28T20:21:00.982Z,1.40
2018-03-28T20:23:28.816Z,1.43
2018-03-28T20:25:56.641Z,0.87
2018-03-28T20:28:24.469Z,1.23
2018-03-28T20:30:52.290Z,2.47
2018-03-28T20:33:20.097Z,2.40
2018-03-28T20:35:47.952Z,1.63
2018-03-28T20:38:15.979Z,1.30
2018-03-28T20:40:44.823Z,1.90
2018-03-28T20:43:13.649Z,3.17
2018-03-28T20:45:41.525Z,2.37
2018-03-28T20:48:09.413Z,3.43
2018-03-28T20:50:37.305Z,3.00
2018-03-28T20:53:05.123Z,4.23
2018-03-28T20:55:32.951Z,3.80
2018-03-28T20:58:00.781Z,4.17
2018-03-28T21:00:28.637Z,4.43
2018-03-28T21:02:56.640Z,3.53
2018-03-28T21:05:25.243Z,2.40
2018-03-28T21:07:53.083Z,1.43
2018-03-28T21:10:21.965Z,1.27
2018-03-28T21:12:50.800Z,1.60
2018-03-28T21:15:18.641Z,2.57
2018-03-28T21:17:47.280Z,1.47
2018-03-28T21:20:15.829Z,2.00
2018-03-28T21:22:44.802Z,2.97
2018-03-28T21:25:13.583Z,2.53
2018-03-28T21:27:42.133Z,2.10
2018-03-28T21:30:10.859Z,2.80
2018-03-28T21:32:39.092Z,2.40
2018-03-28T21:35:07.147Z,2.77
2018-03-28T21:37:34.997Z,2.77
2018-03-28T21:40:02.894Z,5.50
2018-03-28T21:42:30.544Z,2.53
2018-03-28T21:44:58.042Z,3.10
2018-03-28T21:47:25.652Z,1.70
2018-03-28T21:49:53.318Z,2.13
2018-03-28T21:52:21.146Z,3.50
2018-03-28T21:54:48.628Z,2.50
2018-03-28T21:57:16.138Z,2.60
2018-03-28T21:59:43.631Z,1.87
2018-03-28T22:02:11.378Z,3.17
2018-03-28T22:04:38.872Z,1.53
2018-03-28T22:07:06.640Z,1.70
2018-03-28T22:09:34.121Z,1.70
2018-03-28T22:12:01.601Z,2.20
2018-03-28T22:14:29.252Z,2.20
2018-03-28T22:16:56.758Z,2.03
2018-03-28T22:19:24.516Z,2.40
2018-03-28T22:21:52.018Z,2.17
2018-03-28T22:24:20.457Z,3.27
2018-03-28T22:26:48.028Z,3.17
2018-03-28T22:29:15.541Z,3.37
2018-03-28T22:31:43.033Z,2.73
2018-03-28T22:34:10.509Z,1.90
2018-03-28T22:36:37.988Z,2.37
2018-03-28T22:39:05.486Z,1.87
2018-03-28T22:41:32.952Z,3.70
2018-03-28T22:44:00.658Z,2.40
2018-03-28T22:46:28.133Z,2.10
2018-03-28T22:48:55.682Z,0.90
2018-03-28T22:51:23.186Z,0.93
2018-03-28T22:53:50.878Z,0.80
2018-03-28T22:56:18.706Z,1.03
2018-03-28T22:58:46.206Z,0.80
2018-03-28T23:01:13.884Z,0.90
2018-03-28T23:03:41.357Z,0.60
2018-03-28T23:06:08.853Z,0.50
2018-03-28T23:08:36.603Z,0.80
2018-03-28T23:11:04.081Z,1.33
2018-03-28T23:13:31.578Z,0.40
2018-03-28T23:15:59.068Z,0.60
2018-03-28T23:18:26.672Z,1.73
2018-03-28T23:20:54.326Z,1.03
2018-03-28T23:23:21.818Z,1.07
2018-03-28T23:25:49.588Z,0.50
2018-03-28T23:28:17.284Z,1.17
2018-03-28T23:30:44.936Z,0.40
2018-03-28T23:33:12.594Z,0.60
2018-03-28T23:35:40.069Z,0.50
2018-03-28T23:38:08.098Z,0.80
2018-03-28T23:40:35.585Z,0.43
2018-03-28T23:43:03.073Z,0.60
2018-03-28T23:45:30.566Z,0.50
2018-03-28T23:47:58.041Z,0.77
2018-03-28T23:50:25.535Z,0.40
2018-03-28T23:52:53.022Z,0.60
2018-03-28T23:55:20.839Z,0.73
2018-03-28T23:57:48.341Z,0.53
